sensor_id;sensor_type;location;lat;lon;timestamp;P1;durP1;ratioP1;P2;durP2;ratioP2
13051;SDS011;6592;47.484;9.726;2022-09-27T00:02:04;2.50;;;1.60;;
13051;SDS011;6592;47.484;9.726;2022-09-27T00:04:32;2.80;;;1.65;;
13051;SDS011;6592;47.484;9.726;2022-09-27T00:07:02;4.00;;;1.83;;
13051;SDS011;6592;47.484;9.726;2022-09-27T00:09:30;4.32;;;1.63;;
13051;SDS011;6592;47.484;9.726;2022-09-27T00:11:59;2.97;;;1.70;;
13051;SDS011;6592;47.484;9.726;2022-09-27T00:14:28;3.30;;;1.60;;
13051;SDS011;6592;47.484;9.726;2022-09-27T00:16:56;3.33;;;1.63;;
13051;SDS011;6592;47.484;9.726;2022-09-27T00:19:24;3.45;;;1.52;;
13051;SDS011;6592;47.484;9.726;2022-09-27T00:21:53;5.88;;;1.65;;
13051;SDS011;6592;47.484;9.726;2022-09-27T00:24:24;3.75;;;1.70;;
13051;SDS011;6592;47.484;9.726;2022-09-27T00:26:52;2.75;;;1.52;;
13051;SDS011;6592;47.484;9.726;2022-09-27T00:29:21;3.95;;;1.70;;
13051;SDS011;6592;47.484;9.726;2022-09-27T00:31:49;3.33;;;1.65;;
13051;SDS011;6592;47.484;9.726;2022-09-27T00:34:18;5.47;;;1.40;;
13051;SDS011;6592;47.484;9.726;2022-09-27T00:36:49;3.75;;;2.03;;
13051;SDS011;6592;47.484;9.726;2022-09-27T00:39:18;5.30;;;1.88;;
13051;SDS011;6592;47.484;9.726;2022-09-27T00:41:48;3.25;;;1.75;;
13051;SDS011;6592;47.484;9.726;2022-09-27T00:47:33;3.67;;;1.63;;
13051;SDS011;6592;47.484;9.726;2022-09-27T00:50:12;3.30;;;1.65;;
13051;SDS011;6592;47.484;9.726;2022-09-27T00:52:51;3.50;;;1.80;;
13051;SDS011;6592;47.484;9.726;2022-09-27T00:55:27;3.67;;;1.88;;
13051;SDS011;6592;47.484;9.726;2022-09-27T00:58:01;6.38;;;1.92;;
13051;SDS011;6592;47.484;9.726;2022-09-27T01:00:30;4.97;;;1.90;;
13051;SDS011;6592;47.484;9.726;2022-09-27T01:02:59;3.72;;;1.77;;
13051;SDS011;6592;47.484;9.726;2022-09-27T01:05:30;2.95;;;1.70;;
13051;SDS011;6592;47.484;9.726;2022-09-27T01:07:59;5.25;;;1.80;;
13051;SDS011;6592;47.484;9.726;2022-09-27T01:10:27;4.30;;;1.90;;
13051;SDS011;6592;47.484;9.726;2022-09-27T01:13:06;4.45;;;1.65;;
13051;SDS011;6592;47.484;9.726;2022-09-27T01:15:42;3.25;;;1.80;;
13051;SDS011;6592;47.484;9.726;2022-09-27T01:18:26;4.15;;;1.88;;
13051;SDS011;6592;47.484;9.726;2022-09-27T01:27:14;4.32;;;1.85;;
13051;SDS011;6592;47.484;9.726;2022-09-27T01:30:11;4.38;;;2.03;;
13051;SDS011;6592;47.484;9.726;2022-09-27T01:32:53;3.50;;;1.80;;
13051;SDS011;6592;47.484;9.726;2022-09-27T01:35:32;3.03;;;1.70;;
13051;SDS011;6592;47.484;9.726;2022-09-27T01:38:06;3.60;;;1.80;;
13051;SDS011;6592;47.484;9.726;2022-09-27T01:40:43;2.78;;;1.60;;
13051;SDS011;6592;47.484;9.726;2022-09-27T01:43:17;3.50;;;1.95;;
13051;SDS011;6592;47.484;9.726;2022-09-27T01:45:53;2.88;;;1.67;;
13051;SDS011;6592;47.484;9.726;2022-09-27T01:48:25;4.78;;;2.08;;
13051;SDS011;6592;47.484;9.726;2022-09-27T01:51:01;5.75;;;1.90;;
13051;SDS011;6592;47.484;9.726;2022-09-27T01:53:35;4.70;;;1.95;;
13051;SDS011;6592;47.484;9.726;2022-09-27T01:56:06;3.75;;;1.65;;
13051;SDS011;6592;47.484;9.726;2022-09-27T01:58:40;5.07;;;2.05;;
13051;SDS011;6592;47.484;9.726;2022-09-27T02:01:14;3.35;;;1.92;;
13051;SDS011;6592;47.484;9.726;2022-09-27T02:03:46;3.90;;;1.80;;
13051;SDS011;6592;47.484;9.726;2022-09-27T02:08:47;3.75;;;2.15;;
13051;SDS011;6592;47.484;9.726;2022-09-27T02:11:19;4.25;;;2.17;;
13051;SDS011;6592;47.484;9.726;2022-09-27T02:13:49;3.85;;;2.10;;
13051;SDS011;6592;47.484;9.726;2022-09-27T02:16:26;4.95;;;2.30;;
13051;SDS011;6592;47.484;9.726;2022-09-27T02:19:00;4.15;;;2.08;;
13051;SDS011;6592;47.484;9.726;2022-09-27T02:21:39;5.32;;;2.15;;
13051;SDS011;6592;47.484;9.726;2022-09-27T02:24:12;4.07;;;2.28;;
13051;SDS011;6592;47.484;9.726;2022-09-27T02:26:45;3.70;;;2.20;;
13051;SDS011;6592;47.484;9.726;2022-09-27T02:29:20;5.85;;;2.33;;
13051;SDS011;6592;47.484;9.726;2022-09-27T02:31:56;7.88;;;2.58;;
13051;SDS011;6592;47.484;9.726;2022-09-27T02:34:25;5.47;;;2.70;;
13051;SDS011;6592;47.484;9.726;2022-09-27T02:39:24;3.83;;;2.22;;
13051;SDS011;6592;47.484;9.726;2022-09-27T02:41:54;4.40;;;2.75;;
13051;SDS011;6592;47.484;9.726;2022-09-27T02:44:25;5.43;;;2.40;;
13051;SDS011;6592;47.484;9.726;2022-09-27T02:47:00;4.30;;;2.60;;
13051;SDS011;6592;47.484;9.726;2022-09-27T02:49:50;5.10;;;2.60;;
13051;SDS011;6592;47.484;9.726;2022-09-27T02:52:32;3.90;;;2.60;;
13051;SDS011;6592;47.484;9.726;2022-09-27T02:55:11;5.43;;;2.85;;
13051;SDS011;6592;47.484;9.726;2022-09-27T02:57:49;4.05;;;2.50;;
13051;SDS011;6592;47.484;9.726;2022-09-27T03:00:29;3.65;;;2.30;;
13051;SDS011;6592;47.484;9.726;2022-09-27T03:03:06;4.88;;;2.75;;
13051;SDS011;6592;47.484;9.726;2022-09-27T03:05:41;5.10;;;2.90;;
13051;SDS011;6592;47.484;9.726;2022-09-27T03:08:12;4.53;;;2.80;;
13051;SDS011;6592;47.484;9.726;2022-09-27T03:10:41;4.88;;;2.83;;
13051;SDS011;6592;47.484;9.726;2022-09-27T03:13:10;4.00;;;2.70;;
13051;SDS011;6592;47.484;9.726;2022-09-27T03:15:39;5.32;;;2.90;;
13051;SDS011;6592;47.484;9.726;2022-09-27T03:18:08;5.40;;;3.10;;
13051;SDS011;6592;47.484;9.726;2022-09-27T03:20:37;4.68;;;2.95;;
13051;SDS011;6592;47.484;9.726;2022-09-27T03:23:05;5.07;;;2.83;;
13051;SDS011;6592;47.484;9.726;2022-09-27T03:25:33;8.23;;;3.30;;
13051;SDS011;6592;47.484;9.726;2022-09-27T03:28:02;6.60;;;3.40;;
13051;SDS011;6592;47.484;9.726;2022-09-27T03:30:31;5.50;;;3.20;;
13051;SDS011;6592;47.484;9.726;2022-09-27T03:33:01;7.32;;;3.55;;
13051;SDS011;6592;47.484;9.726;2022-09-27T03:35:31;7.03;;;3.20;;
13051;SDS011;6592;47.484;9.726;2022-09-27T03:37:59;5.15;;;2.78;;
13051;SDS011;6592;47.484;9.726;2022-09-27T03:40:28;4.97;;;2.92;;
13051;SDS011;6592;47.484;9.726;2022-09-27T03:42:56;4.05;;;2.17;;
13051;SDS011;6592;47.484;9.726;2022-09-27T03:45:24;3.88;;;2.10;;
13051;SDS011;6592;47.484;9.726;2022-09-27T03:47:53;3.92;;;1.77;;
13051;SDS011;6592;47.484;9.726;2022-09-27T03:50:21;2.67;;;1.33;;
13051;SDS011;6592;47.484;9.726;2022-09-27T03:52:51;2.28;;;1.10;;
13051;SDS011;6592;47.484;9.726;2022-09-27T03:55:20;1.42;;;0.80;;
13051;SDS011;6592;47.484;9.726;2022-09-27T03:57:48;2.17;;;0.60;;
13051;SDS011;6592;47.484;9.726;2022-09-27T04:00:16;2.58;;;0.88;;
13051;SDS011;6592;47.484;9.726;2022-09-27T04:02:45;1.58;;;0.70;;
13051;SDS011;6592;47.484;9.726;2022-09-27T04:05:14;3.22;;;0.70;;
13051;SDS011;6592;47.484;9.726;2022-09-27T04:07:44;1.35;;;0.60;;
13051;SDS011;6592;47.484;9.726;2022-09-27T04:10:15;1.98;;;0.50;;
13051;SDS011;6592;47.484;9.726;2022-09-27T04:12:43;1.80;;;0.43;;
13051;SDS011;6592;47.484;9.726;2022-09-27T04:15:11;1.27;;;0.70;;
13051;SDS011;6592;47.484;9.726;2022-09-27T04:17:40;1.15;;;0.50;;
13051;SDS011;6592;47.484;9.726;2022-09-27T04:20:09;2.30;;;0.90;;
13051;SDS011;6592;47.484;9.726;2022-09-27T04:22:38;4.00;;;0.70;;
13051;SDS011;6592;47.484;9.726;2022-09-27T04:25:09;2.47;;;0.80;;
13051;SDS011;6592;47.484;9.726;2022-09-27T04:27:42;1.58;;;0.63;;
13051;SDS011;6592;47.484;9.726;2022-09-27T04:30:12;1.75;;;0.40;;
13051;SDS011;6592;47.484;9.726;2022-09-27T04:32:41;2.63;;;0.60;;
13051;SDS011;6592;47.484;9.726;2022-09-27T04:35:09;3.90;;;0.90;;
13051;SDS011;6592;47.484;9.726;2022-09-27T04:37:56;2.13;;;0.60;;
13051;SDS011;6592;47.484;9.726;2022-09-27T04:40:25;1.88;;;0.60;;
13051;SDS011;6592;47.484;9.726;2022-09-27T04:42:55;2.70;;;0.77;;
13051;SDS011;6592;47.484;9.726;2022-09-27T04:45:23;1.17;;;0.50;;
13051;SDS011;6592;47.484;9.726;2022-09-27T04:47:51;5.30;;;0.80;;
13051;SDS011;6592;47.484;9.726;2022-09-27T04:50:20;2.97;;;0.70;;
13051;SDS011;6592;47.484;9.726;2022-09-27T04:52:49;2.20;;;0.90;;
13051;SDS011;6592;47.484;9.726;2022-09-27T04:55:19;2.28;;;0.70;;
13051;SDS011;6592;47.484;9.726;2022-09-27T04:57:48;6.38;;;2.20;;
13051;SDS011;6592;47.484;9.726;2022-09-27T05:00:18;2.95;;;1.27;;
13051;SDS011;6592;47.484;9.726;2022-09-27T05:02:46;3.30;;;0.95;;
13051;SDS011;6592;47.484;9.726;2022-09-27T05:05:15;1.85;;;0.75;;
13051;SDS011;6592;47.484;9.726;2022-09-27T05:07:43;1.77;;;0.82;;
13051;SDS011;6592;47.484;9.726;2022-09-27T05:10:12;6.93;;;1.70;;
13051;SDS011;6592;47.484;9.726;2022-09-27T05:12:40;3.00;;;1.20;;
13051;SDS011;6592;47.484;9.726;2022-09-27T05:15:08;4.50;;;1.58;;
13051;SDS011;6592;47.484;9.726;2022-09-27T05:17:39;5.25;;;1.70;;
13051;SDS011;6592;47.484;9.726;2022-09-27T05:20:08;5.43;;;1.90;;
13051;SDS011;6592;47.484;9.726;2022-09-27T05:22:38;4.75;;;2.00;;
13051;SDS011;6592;47.484;9.726;2022-09-27T05:25:07;4.00;;;1.60;;
13051;SDS011;6592;47.484;9.726;2022-09-27T05:27:35;3.13;;;1.17;;
13051;SDS011;6592;47.484;9.726;2022-09-27T05:30:04;2.65;;;1.05;;
13051;SDS011;6592;47.484;9.726;2022-09-27T05:32:33;3.83;;;1.52;;
13051;SDS011;6592;47.484;9.726;2022-09-27T05:35:03;3.78;;;1.48;;
13051;SDS011;6592;47.484;9.726;2022-09-27T05:37:32;2.22;;;0.75;;
13051;SDS011;6592;47.484;9.726;2022-09-27T05:40:01;2.90;;;0.80;;
13051;SDS011;6592;47.484;9.726;2022-09-27T05:42:50;2.60;;;1.00;;
13051;SDS011;6592;47.484;9.726;2022-09-27T05:45:19;4.07;;;1.90;;
13051;SDS011;6592;47.484;9.726;2022-09-27T05:47:52;3.05;;;1.00;;
13051;SDS011;6592;47.484;9.726;2022-09-27T05:50:23;4.03;;;1.90;;
13051;SDS011;6592;47.484;9.726;2022-09-27T05:52:52;3.00;;;1.00;;
13051;SDS011;6592;47.484;9.726;2022-09-27T05:55:21;2.63;;;0.80;;
13051;SDS011;6592;47.484;9.726;2022-09-27T05:57:53;1.63;;;0.70;;
13051;SDS011;6592;47.484;9.726;2022-09-27T06:00:23;2.80;;;0.70;;
13051;SDS011;6592;47.484;9.726;2022-09-27T06:02:52;2.25;;;0.60;;
13051;SDS011;6592;47.484;9.726;2022-09-27T06:05:24;1.67;;;0.50;;
13051;SDS011;6592;47.484;9.726;2022-09-27T06:07:57;1.95;;;0.60;;
13051;SDS011;6592;47.484;9.726;2022-09-27T06:10:27;3.00;;;1.17;;
13051;SDS011;6592;47.484;9.726;2022-09-27T06:12:58;2.38;;;1.00;;
13051;SDS011;6592;47.484;9.726;2022-09-27T06:18:00;2.47;;;0.75;;
13051;SDS011;6592;47.484;9.726;2022-09-27T06:20:32;3.08;;;1.50;;
13051;SDS011;6592;47.484;9.726;2022-09-27T06:23:04;2.63;;;0.88;;
13051;SDS011;6592;47.484;9.726;2022-09-27T06:25:34;2.22;;;0.70;;
13051;SDS011;6592;47.484;9.726;2022-09-27T06:28:03;1.67;;;0.45;;
13051;SDS011;6592;47.484;9.726;2022-09-27T06:30:31;2.75;;;0.60;;
13051;SDS011;6592;47.484;9.726;2022-09-27T06:33:00;2.05;;;0.70;;
13051;SDS011;6592;47.484;9.726;2022-09-27T06:35:29;2.03;;;0.60;;
13051;SDS011;6592;47.484;9.726;2022-09-27T06:38:01;1.17;;;0.52;;
13051;SDS011;6592;47.484;9.726;2022-09-27T06:40:30;2.15;;;0.75;;
13051;SDS011;6592;47.484;9.726;2022-09-27T06:43:01;3.05;;;0.52;;
13051;SDS011;6592;47.484;9.726;2022-09-27T06:45:31;2.78;;;0.60;;
13051;SDS011;6592;47.484;9.726;2022-09-27T06:48:00;2.08;;;0.85;;
13051;SDS011;6592;47.484;9.726;2022-09-27T06:50:29;10.05;;;6.68;;
13051;SDS011;6592;47.484;9.726;2022-09-27T06:52:59;1.40;;;0.57;;
13051;SDS011;6592;47.484;9.726;2022-09-27T06:55:28;2.28;;;0.60;;
13051;SDS011;6592;47.484;9.726;2022-09-27T06:57:56;2.80;;;0.80;;
13051;SDS011;6592;47.484;9.726;2022-09-27T07:00:43;1.42;;;0.57;;
13051;SDS011;6592;47.484;9.726;2022-09-27T07:03:15;2.65;;;0.50;;
13051;SDS011;6592;47.484;9.726;2022-09-27T07:05:52;1.27;;;0.50;;
13051;SDS011;6592;47.484;9.726;2022-09-27T07:08:24;4.35;;;1.70;;
13051;SDS011;6592;47.484;9.726;2022-09-27T07:13:22;1.83;;;0.60;;
13051;SDS011;6592;47.484;9.726;2022-09-27T07:15:51;2.53;;;1.00;;
13051;SDS011;6592;47.484;9.726;2022-09-27T07:18:20;1.67;;;0.52;;
13051;SDS011;6592;47.484;9.726;2022-09-27T07:20:48;4.55;;;2.13;;
13051;SDS011;6592;47.484;9.726;2022-09-27T07:23:17;3.03;;;1.25;;
13051;SDS011;6592;47.484;9.726;2022-09-27T07:25:47;3.38;;;1.10;;
13051;SDS011;6592;47.484;9.726;2022-09-27T07:28:16;1.48;;;0.60;;
13051;SDS011;6592;47.484;9.726;2022-09-27T07:33:16;1.20;;;0.40;;
13051;SDS011;6592;47.484;9.726;2022-09-27T07:35:44;1.98;;;0.50;;
13051;SDS011;6592;47.484;9.726;2022-09-27T07:38:12;1.15;;;0.40;;
13051;SDS011;6592;47.484;9.726;2022-09-27T07:40:42;1.40;;;0.50;;
13051;SDS011;6592;47.484;9.726;2022-09-27T07:43:11;1.83;;;0.60;;
13051;SDS011;6592;47.484;9.726;2022-09-27T07:45:40;1.88;;;0.63;;
13051;SDS011;6592;47.484;9.726;2022-09-27T07:48:11;1.10;;;0.40;;
13051;SDS011;6592;47.484;9.726;2022-09-27T07:50:40;1.38;;;0.50;;
13051;SDS011;6592;47.484;9.726;2022-09-27T07:53:09;1.65;;;0.52;;
13051;SDS011;6592;47.484;9.726;2022-09-27T07:55:39;1.60;;;0.30;;
13051;SDS011;6592;47.484;9.726;2022-09-27T07:58:08;0.93;;;0.22;;
13051;SDS011;6592;47.484;9.726;2022-09-27T08:00:39;3.13;;;0.50;;
13051;SDS011;6592;47.484;9.726;2022-09-27T08:03:09;1.08;;;0.50;;
13051;SDS011;6592;47.484;9.726;2022-09-27T08:05:41;2.10;;;0.60;;
13051;SDS011;6592;47.484;9.726;2022-09-27T08:08:10;1.58;;;0.40;;
13051;SDS011;6592;47.484;9.726;2022-09-27T08:10:39;1.23;;;0.45;;
13051;SDS011;6592;47.484;9.726;2022-09-27T08:13:09;1.73;;;0.40;;
13051;SDS011;6592;47.484;9.726;2022-09-27T08:15:39;1.80;;;0.52;;
13051;SDS011;6592;47.484;9.726;2022-09-27T08:18:07;1.60;;;0.60;;
13051;SDS011;6592;47.484;9.726;2022-09-27T08:20:36;2.35;;;0.68;;
13051;SDS011;6592;47.484;9.726;2022-09-27T08:23:05;1.13;;;0.35;;
13051;SDS011;6592;47.484;9.726;2022-09-27T08:25:34;1.48;;;0.52;;
13051;SDS011;6592;47.484;9.726;2022-09-27T08:28:02;1.95;;;0.50;;
13051;SDS011;6592;47.484;9.726;2022-09-27T08:30:31;1.23;;;0.40;;
13051;SDS011;6592;47.484;9.726;2022-09-27T08:33:01;1.13;;;0.40;;
13051;SDS011;6592;47.484;9.726;2022-09-27T08:35:38;1.80;;;0.43;;
13051;SDS011;6592;47.484;9.726;2022-09-27T08:38:06;0.70;;;0.30;;
13051;SDS011;6592;47.484;9.726;2022-09-27T08:40:45;1.98;;;0.40;;
13051;SDS011;6592;47.484;9.726;2022-09-27T08:43:22;0.93;;;0.30;;
13051;SDS011;6592;47.484;9.726;2022-09-27T08:46:08;2.80;;;0.55;;
13051;SDS011;6592;47.484;9.726;2022-09-27T08:48:48;0.93;;;0.30;;
13051;SDS011;6592;47.484;9.726;2022-09-27T08:51:20;1.17;;;0.32;;
13051;SDS011;6592;47.484;9.726;2022-09-27T08:53:54;2.92;;;0.60;;
13051;SDS011;6592;47.484;9.726;2022-09-27T08:56:26;3.70;;;0.60;;
13051;SDS011;6592;47.484;9.726;2022-09-27T08:58:56;2.28;;;0.70;;
13051;SDS011;6592;47.484;9.726;2022-09-27T09:01:29;2.35;;;0.40;;
13051;SDS011;6592;47.484;9.726;2022-09-27T09:03:59;1.85;;;0.47;;
13051;SDS011;6592;47.484;9.726;2022-09-27T09:06:32;2.22;;;0.50;;
13051;SDS011;6592;47.484;9.726;2022-09-27T09:09:12;1.50;;;0.30;;
13051;SDS011;6592;47.484;9.726;2022-09-27T09:11:55;3.42;;;0.98;;
13051;SDS011;6592;47.484;9.726;2022-09-27T09:14:56;3.65;;;0.52;;
13051;SDS011;6592;47.484;9.726;2022-09-27T09:17:47;2.70;;;0.52;;
13051;SDS011;6592;47.484;9.726;2022-09-27T09:20:33;1.40;;;0.70;;
13051;SDS011;6592;47.484;9.726;2022-09-27T09:26:11;2.20;;;0.50;;
13051;SDS011;6592;47.484;9.726;2022-09-27T09:31:39;3.13;;;0.50;;
13051;SDS011;6592;47.484;9.726;2022-09-27T09:34:15;3.00;;;0.70;;
13051;SDS011;6592;47.484;9.726;2022-09-27T09:36:49;1.15;;;0.40;;
13051;SDS011;6592;47.484;9.726;2022-09-27T09:39:23;1.38;;;0.40;;
13051;SDS011;6592;47.484;9.726;2022-09-27T09:42:01;1.50;;;0.43;;
13051;SDS011;6592;47.484;9.726;2022-09-27T09:44:38;1.00;;;0.30;;
13051;SDS011;6592;47.484;9.726;2022-09-27T09:47:14;0.52;;;0.30;;
13051;SDS011;6592;47.484;9.726;2022-09-27T09:49:50;2.53;;;0.50;;
13051;SDS011;6592;47.484;9.726;2022-09-27T09:52:35;2.13;;;0.50;;
13051;SDS011;6592;47.484;9.726;2022-09-27T09:55:12;2.58;;;0.60;;
13051;SDS011;6592;47.484;9.726;2022-09-27T09:57:51;1.73;;;0.50;;
13051;SDS011;6592;47.484;9.726;2022-09-27T10:00:26;1.55;;;0.52;;
13051;SDS011;6592;47.484;9.726;2022-09-27T10:02:54;1.85;;;0.50;;
13051;SDS011;6592;47.484;9.726;2022-09-27T10:05:26;3.67;;;0.70;;
13051;SDS011;6592;47.484;9.726;2022-09-27T10:07:57;1.67;;;0.52;;
13051;SDS011;6592;47.484;9.726;2022-09-27T10:10:28;1.52;;;0.52;;
13051;SDS011;6592;47.484;9.726;2022-09-27T10:12:56;1.73;;;0.40;;
13051;SDS011;6592;47.484;9.726;2022-09-27T10:15:26;2.40;;;0.90;;
13051;SDS011;6592;47.484;9.726;2022-09-27T10:17:57;3.30;;;0.88;;
13051;SDS011;6592;47.484;9.726;2022-09-27T10:20:29;1.92;;;0.57;;
13051;SDS011;6592;47.484;9.726;2022-09-27T10:23:05;3.08;;;0.43;;
13051;SDS011;6592;47.484;9.726;2022-09-27T10:25:44;1.30;;;0.55;;
13051;SDS011;6592;47.484;9.726;2022-09-27T10:28:33;2.08;;;0.47;;
13051;SDS011;6592;47.484;9.726;2022-09-27T10:31:04;1.67;;;0.47;;
13051;SDS011;6592;47.484;9.726;2022-09-27T10:33:34;2.40;;;0.50;;
13051;SDS011;6592;47.484;9.726;2022-09-27T10:36:20;1.27;;;0.60;;
13051;SDS011;6592;47.484;9.726;2022-09-27T10:38:53;2.65;;;0.68;;
13051;SDS011;6592;47.484;9.726;2022-09-27T10:41:23;5.38;;;0.77;;
13051;SDS011;6592;47.484;9.726;2022-09-27T10:43:53;2.00;;;0.68;;
13051;SDS011;6592;47.484;9.726;2022-09-27T10:46:23;2.08;;;0.50;;
13051;SDS011;6592;47.484;9.726;2022-09-27T10:51:40;1.83;;;0.50;;
13051;SDS011;6592;47.484;9.726;2022-09-27T10:54:18;5.07;;;0.77;;
13051;SDS011;6592;47.484;9.726;2022-09-27T10:56:55;2.45;;;0.60;;
13051;SDS011;6592;47.484;9.726;2022-09-27T10:59:25;2.60;;;0.60;;
13051;SDS011;6592;47.484;9.726;2022-09-27T11:01:57;3.08;;;0.85;;
13051;SDS011;6592;47.484;9.726;2022-09-27T11:04:27;1.88;;;0.50;;
13051;SDS011;6592;47.484;9.726;2022-09-27T11:07:12;3.80;;;0.70;;
13051;SDS011;6592;47.484;9.726;2022-09-27T11:09:47;3.38;;;0.75;;
13051;SDS011;6592;47.484;9.726;2022-09-27T11:12:20;2.35;;;0.70;;
13051;SDS011;6592;47.484;9.726;2022-09-27T11:14:52;4.50;;;1.58;;
13051;SDS011;6592;47.484;9.726;2022-09-27T11:17:29;4.60;;;2.47;;
13051;SDS011;6592;47.484;9.726;2022-09-27T11:20:04;2.83;;;1.00;;
13051;SDS011;6592;47.484;9.726;2022-09-27T11:22:57;3.10;;;0.90;;
13051;SDS011;6592;47.484;9.726;2022-09-27T11:25:58;2.47;;;0.80;;
13051;SDS011;6592;47.484;9.726;2022-09-27T11:28:37;2.72;;;0.50;;
13051;SDS011;6592;47.484;9.726;2022-09-27T11:31:17;1.77;;;0.50;;
13051;SDS011;6592;47.484;9.726;2022-09-27T11:34:06;6.13;;;2.28;;
13051;SDS011;6592;47.484;9.726;2022-09-27T11:36:54;3.05;;;0.60;;
13051;SDS011;6592;47.484;9.726;2022-09-27T11:39:36;1.90;;;0.68;;
13051;SDS011;6592;47.484;9.726;2022-09-27T11:42:26;4.00;;;0.55;;
13051;SDS011;6592;47.484;9.726;2022-09-27T11:45:18;3.03;;;0.60;;
13051;SDS011;6592;47.484;9.726;2022-09-27T11:48:17;0.52;;;0.30;;
13051;SDS011;6592;47.484;9.726;2022-09-27T11:51:03;1.90;;;0.60;;
13051;SDS011;6592;47.484;9.726;2022-09-27T11:53:44;1.92;;;0.45;;
13051;SDS011;6592;47.484;9.726;2022-09-27T11:56:28;2.15;;;0.60;;
13051;SDS011;6592;47.484;9.726;2022-09-27T11:59:15;2.53;;;0.40;;
13051;SDS011;6592;47.484;9.726;2022-09-27T12:02:06;1.83;;;0.50;;
13051;SDS011;6592;47.484;9.726;2022-09-27T12:04:54;1.52;;;0.40;;
13051;SDS011;6592;47.484;9.726;2022-09-27T12:07:33;2.70;;;1.25;;
13051;SDS011;6592;47.484;9.726;2022-09-27T12:10:08;2.45;;;1.15;;
13051;SDS011;6592;47.484;9.726;2022-09-27T12:12:40;1.85;;;0.70;;
13051;SDS011;6592;47.484;9.726;2022-09-27T12:15:14;5.13;;;2.30;;
13051;SDS011;6592;47.484;9.726;2022-09-27T12:17:45;4.88;;;1.70;;
13051;SDS011;6592;47.484;9.726;2022-09-27T12:20:18;5.90;;;2.05;;
13051;SDS011;6592;47.484;9.726;2022-09-27T12:25:25;7.55;;;2.97;;
13051;SDS011;6592;47.484;9.726;2022-09-27T12:27:57;5.80;;;2.35;;
13051;SDS011;6592;47.484;9.726;2022-09-27T12:30:33;5.43;;;2.08;;
13051;SDS011;6592;47.484;9.726;2022-09-27T12:33:06;4.65;;;1.13;;
13051;SDS011;6592;47.484;9.726;2022-09-27T12:35:39;2.58;;;0.70;;
13051;SDS011;6592;47.484;9.726;2022-09-27T12:38:13;3.10;;;0.82;;
13051;SDS011;6592;47.484;9.726;2022-09-27T12:40:46;4.13;;;0.90;;
13051;SDS011;6592;47.484;9.726;2022-09-27T12:43:19;2.95;;;0.80;;
13051;SDS011;6592;47.484;9.726;2022-09-27T12:45:53;3.20;;;0.70;;
13051;SDS011;6592;47.484;9.726;2022-09-27T12:48:32;1.88;;;0.68;;
13051;SDS011;6592;47.484;9.726;2022-09-27T12:51:07;4.05;;;1.45;;
13051;SDS011;6592;47.484;9.726;2022-09-27T12:53:42;1.83;;;0.82;;
13051;SDS011;6592;47.484;9.726;2022-09-27T12:56:25;3.60;;;1.10;;
13051;SDS011;6592;47.484;9.726;2022-09-27T12:59:07;2.80;;;1.13;;
13051;SDS011;6592;47.484;9.726;2022-09-27T13:01:58;3.58;;;1.30;;
13051;SDS011;6592;47.484;9.726;2022-09-27T13:04:55;2.63;;;0.98;;
13051;SDS011;6592;47.484;9.726;2022-09-27T13:07:42;3.58;;;1.60;;
13051;SDS011;6592;47.484;9.726;2022-09-27T13:10:21;3.42;;;1.20;;
13051;SDS011;6592;47.484;9.726;2022-09-27T13:13:09;3.40;;;0.90;;
13051;SDS011;6592;47.484;9.726;2022-09-27T13:15:39;2.28;;;0.70;;
13051;SDS011;6592;47.484;9.726;2022-09-27T13:20:57;6.97;;;2.22;;
13051;SDS011;6592;47.484;9.726;2022-09-27T13:26:41;2.30;;;0.85;;
13051;SDS011;6592;47.484;9.726;2022-09-27T13:29:21;2.10;;;0.88;;
13051;SDS011;6592;47.484;9.726;2022-09-27T13:32:01;2.38;;;0.60;;
13051;SDS011;6592;47.484;9.726;2022-09-27T13:34:47;1.27;;;0.60;;
13051;SDS011;6592;47.484;9.726;2022-09-27T13:45:58;1.45;;;0.60;;
13051;SDS011;6592;47.484;9.726;2022-09-27T13:48:31;2.17;;;0.70;;
13051;SDS011;6592;47.484;9.726;2022-09-27T13:51:16;2.53;;;0.70;;
13051;SDS011;6592;47.484;9.726;2022-09-27T13:53:55;1.77;;;0.60;;
13051;SDS011;6592;47.484;9.726;2022-09-27T13:59:20;3.38;;;0.77;;
13051;SDS011;6592;47.484;9.726;2022-09-27T14:01:53;0.70;;;0.30;;
13051;SDS011;6592;47.484;9.726;2022-09-27T14:04:27;1.42;;;0.50;;
13051;SDS011;6592;47.484;9.726;2022-09-27T14:07:02;3.53;;;0.90;;
13051;SDS011;6592;47.484;9.726;2022-09-27T14:09:31;2.57;;;0.90;;
13051;SDS011;6592;47.484;9.726;2022-09-27T14:12:03;1.90;;;0.63;;
13051;SDS011;6592;47.484;9.726;2022-09-27T14:14:36;1.92;;;0.60;;
13051;SDS011;6592;47.484;9.726;2022-09-27T14:17:08;1.15;;;0.40;;
13051;SDS011;6592;47.484;9.726;2022-09-27T14:19:38;2.83;;;0.60;;
13051;SDS011;6592;47.484;9.726;2022-09-27T14:22:11;1.00;;;0.53;;
13051;SDS011;6592;47.484;9.726;2022-09-27T14:24:45;2.15;;;0.60;;
13051;SDS011;6592;47.484;9.726;2022-09-27T14:27:15;1.30;;;0.50;;
13051;SDS011;6592;47.484;9.726;2022-09-27T14:29:47;1.90;;;0.77;;
13051;SDS011;6592;47.484;9.726;2022-09-27T14:32:19;3.65;;;1.05;;
13051;SDS011;6592;47.484;9.726;2022-09-27T14:35:01;1.98;;;0.82;;
13051;SDS011;6592;47.484;9.726;2022-09-27T14:37:56;2.38;;;0.60;;
13051;SDS011;6592;47.484;9.726;2022-09-27T14:40:33;2.95;;;0.80;;
13051;SDS011;6592;47.484;9.726;2022-09-27T14:43:12;2.17;;;0.60;;
13051;SDS011;6592;47.484;9.726;2022-09-27T14:45:43;1.67;;;0.55;;
13051;SDS011;6592;47.484;9.726;2022-09-27T14:48:17;1.30;;;0.50;;
13051;SDS011;6592;47.484;9.726;2022-09-27T14:50:54;2.25;;;0.90;;
13051;SDS011;6592;47.484;9.726;2022-09-27T14:53:33;3.42;;;1.20;;
13051;SDS011;6592;47.484;9.726;2022-09-27T14:58:34;3.40;;;1.05;;
13051;SDS011;6592;47.484;9.726;2022-09-27T15:01:13;3.83;;;1.40;;
13051;SDS011;6592;47.484;9.726;2022-09-27T15:03:43;1.45;;;0.60;;
13051;SDS011;6592;47.484;9.726;2022-09-27T15:06:14;1.65;;;0.40;;
13051;SDS011;6592;47.484;9.726;2022-09-27T15:08:44;2.13;;;0.50;;
13051;SDS011;6592;47.484;9.726;2022-09-27T15:11:15;0.80;;;0.30;;
13051;SDS011;6592;47.484;9.726;2022-09-27T15:13:45;1.52;;;0.20;;
13051;SDS011;6592;47.484;9.726;2022-09-27T15:16:17;1.58;;;0.30;;
13051;SDS011;6592;47.484;9.726;2022-09-27T15:18:57;1.17;;;0.22;;
13051;SDS011;6592;47.484;9.726;2022-09-27T15:21:27;0.38;;;0.15;;
13051;SDS011;6592;47.484;9.726;2022-09-27T15:23:58;0.50;;;0.30;;
13051;SDS011;6592;47.484;9.726;2022-09-27T15:26:33;1.23;;;0.40;;
13051;SDS011;6592;47.484;9.726;2022-09-27T15:29:05;1.27;;;0.40;;
13051;SDS011;6592;47.484;9.726;2022-09-27T15:31:44;1.30;;;0.40;;
13051;SDS011;6592;47.484;9.726;2022-09-27T15:34:15;1.50;;;0.50;;
13051;SDS011;6592;47.484;9.726;2022-09-27T15:36:49;1.48;;;0.40;;
13051;SDS011;6592;47.484;9.726;2022-09-27T15:39:25;1.25;;;0.30;;
13051;SDS011;6592;47.484;9.726;2022-09-27T15:41:59;0.73;;;0.30;;
13051;SDS011;6592;47.484;9.726;2022-09-27T15:47:38;1.73;;;0.40;;
13051;SDS011;6592;47.484;9.726;2022-09-27T15:50:30;0.80;;;0.30;;
13051;SDS011;6592;47.484;9.726;2022-09-27T15:53:03;1.13;;;0.30;;
13051;SDS011;6592;47.484;9.726;2022-09-27T15:55:34;1.23;;;0.38;;
13051;SDS011;6592;47.484;9.726;2022-09-27T15:58:07;1.33;;;0.40;;
13051;SDS011;6592;47.484;9.726;2022-09-27T16:00:49;1.73;;;0.60;;
13051;SDS011;6592;47.484;9.726;2022-09-27T16:03:19;1.50;;;0.50;;
13051;SDS011;6592;47.484;9.726;2022-09-27T16:05:47;2.75;;;0.40;;
13051;SDS011;6592;47.484;9.726;2022-09-27T16:08:15;1.08;;;0.30;;
13051;SDS011;6592;47.484;9.726;2022-09-27T16:10:45;1.77;;;0.60;;
13051;SDS011;6592;47.484;9.726;2022-09-27T16:13:17;2.67;;;0.77;;
13051;SDS011;6592;47.484;9.726;2022-09-27T16:15:45;3.55;;;1.60;;
13051;SDS011;6592;47.484;9.726;2022-09-27T16:18:14;2.92;;;1.52;;
13051;SDS011;6592;47.484;9.726;2022-09-27T16:20:43;3.90;;;1.85;;
13051;SDS011;6592;47.484;9.726;2022-09-27T16:23:11;2.40;;;1.38;;
13051;SDS011;6592;47.484;9.726;2022-09-27T16:25:39;3.30;;;1.60;;
13051;SDS011;6592;47.484;9.726;2022-09-27T16:28:10;4.00;;;1.23;;
13051;SDS011;6592;47.484;9.726;2022-09-27T16:30:38;2.92;;;1.40;;
13051;SDS011;6592;47.484;9.726;2022-09-27T16:33:06;3.42;;;1.10;;
13051;SDS011;6592;47.484;9.726;2022-09-27T16:35:37;5.30;;;1.58;;